This is the latest recevied weather packets stored in our database for station/object LY3PGO-4. If no packets are shown the sender has not sent any weather packets the latest 1 day(s).
| Time | Temp. | Humidity | Pressure | Rain* | Wind** | Luminosity | Snow |
|---|---|---|---|---|---|---|---|
| 1777975389 | 19.44° C | 54% | 1009.1 hPa | 0 mm | 2.24 m/s, 247° | - | - |
| 1777974786 | 19.44° C | 52% | 1009.5 hPa | 0 mm | 2.24 m/s, 270° | - | - |
| 1777974177 | 18.33° C | 55% | 1009.3 hPa | 0 mm | 1.79 m/s, 157° | - | - |
| 1777972964 | 18.33° C | 55% | 1009.7 hPa | 0 mm | 1.79 m/s, 270° | - | - |
| 1777972358 | 18.33° C | 56% | 1009.4 hPa | 0 mm | 2.24 m/s, 315° | - | - |
| 1777971755 | 17.78° C | 59% | 1009.7 hPa | 0 mm | 1.79 m/s, 225° | - | - |
| 1777971146 | 17.78° C | 61% | 1009.7 hPa | 0 mm | 1.79 m/s, 180° | - | - |
| 1777970541 | 17.78° C | 61% | 1009.8 hPa | 0 mm | 1.34 m/s, 112° | - | - |
| 1777969933 | 17.78° C | 61% | 1009.7 hPa | 0 mm | 0.89 m/s, 292° | - | - |
| 1777969327 | 17.22° C | 62% | 1009.9 hPa | 0 mm | 1.79 m/s, 0° | - | - |
| 1777968724 | 17.22° C | 62% | 1010 hPa | 0 mm | 0.89 m/s, 247° | - | - |
| 1777968115 | 17.22° C | 62% | 1009.6 hPa | 0 mm | 1.79 m/s, 270° | - | - |
| 1777967508 | 17.22° C | 61% | 1009.6 hPa | 0 mm | 1.34 m/s, 292° | - | - |
| 1777966903 | 16.67° C | 61% | 1009.9 hPa | 0 mm | 1.79 m/s, 292° | - | - |
| 1777966295 | 16.67° C | 63% | 1009.7 hPa | 0 mm | 1.34 m/s, 292° | - | - |
| 1777965693 | 16.11° C | 64% | 1010 hPa | 0 mm | 0.45 m/s, 45° | - | - |
| 1777965084 | 15.56° C | 65% | 1009.9 hPa | 0 mm | 1.79 m/s, 270° | - | - |
| 1777964478 | 15.56° C | 69% | 1010 hPa | 0 mm | 0.89 m/s, 270° | - | - |
| 1777963872 | 15° C | 71% | 1009.9 hPa | 0 mm | 1.79 m/s, 292° | - | - |
| 1777963265 | 15.56° C | 73% | 1010 hPa | 0 mm | 0.45 m/s, 270° | - | - |
| 1777962662 | 14.44° C | 76% | 1009.9 hPa | 0 mm | 0.89 m/s, 180° | - | - |
| 1777962052 | 14.44° C | 78% | 1010 hPa | 0 mm | 0.45 m/s, 247° | - | - |
| 1777961447 | 13.33° C | 78% | 1010 hPa | 0 mm | 1.79 m/s, 292° | - | - |
| 1777960841 | 13.89° C | 79% | 1010 hPa | 0 mm | 0.89 m/s, 157° | - | - |
| 1777960233 | 13.33° C | 82% | 1010.1 hPa | 0 mm | 0.89 m/s, 247° | - | - |
* Rain latest hour (hover to see other rain measurements)
** Current wind speed in m/s (hover to see current wind gust speed)